createdAt,value
2022-12-26T00:01:49.472Z,8.20
2022-12-26T00:04:52.302Z,8.20
2022-12-26T00:07:05.044Z,8.20
2022-12-26T00:09:33.961Z,8.30
2022-12-26T00:12:01.268Z,8.30
2022-12-26T00:14:28.564Z,8.30
2022-12-26T00:16:55.892Z,8.30
2022-12-26T00:19:23.066Z,8.30
2022-12-26T00:21:51.270Z,8.30
2022-12-26T00:24:19.207Z,8.30
2022-12-26T00:26:46.406Z,8.30
2022-12-26T00:29:13.624Z,8.30
2022-12-26T00:31:40.910Z,8.20
2022-12-26T00:34:08.003Z,8.20
2022-12-26T00:36:35.280Z,8.30
2022-12-26T00:39:04.225Z,8.20
2022-12-26T00:41:32.261Z,8.20
2022-12-26T00:44:00.570Z,8.20
2022-12-26T00:46:28.582Z,8.20
2022-12-26T00:48:56.215Z,8.20
2022-12-26T00:51:23.767Z,8.20
2022-12-26T00:53:50.779Z,8.20
2022-12-26T00:56:17.993Z,8.20
2022-12-26T00:58:45.123Z,8.20
2022-12-26T01:01:21.893Z,8.20
2022-12-26T01:03:50.477Z,8.20
2022-12-26T01:06:18.560Z,8.30
2022-12-26T01:08:45.766Z,8.30
2022-12-26T01:11:15.008Z,8.30
2022-12-26T01:13:43.811Z,8.30
2022-12-26T01:16:11.068Z,8.30
2022-12-26T01:18:38.218Z,8.30
2022-12-26T01:21:09.921Z,8.30
2022-12-26T01:23:37.093Z,8.30
2022-12-26T01:26:18.986Z,8.30
2022-12-26T01:28:52.295Z,8.30
2022-12-26T01:31:21.193Z,8.30
2022-12-26T01:33:48.834Z,8.30
2022-12-26T01:36:17.651Z,8.30
2022-12-26T01:38:45.446Z,8.40
2022-12-26T01:41:22.029Z,8.30
2022-12-26T01:43:58.242Z,8.30
2022-12-26T01:46:45.529Z,8.40
2022-12-26T01:49:36.271Z,8.40
2022-12-26T01:52:10.183Z,8.40
2022-12-26T01:54:43.047Z,8.40
2022-12-26T01:57:16.698Z,8.40
2022-12-26T01:59:46.319Z,8.40
2022-12-26T02:02:14.351Z,8.40
2022-12-26T02:05:06.430Z,8.40
2022-12-26T02:07:41.118Z,8.40
2022-12-26T02:10:17.936Z,8.50
2022-12-26T02:12:46.391Z,8.50
2022-12-26T02:15:17.823Z,8.50
2022-12-26T02:17:47.224Z,8.50
2022-12-26T02:20:27.677Z,8.50
2022-12-26T02:23:38.925Z,8.50
2022-12-26T02:26:18.130Z,8.50
2022-12-26T02:29:35.265Z,8.50
2022-12-26T02:32:38.488Z,8.60
2022-12-26T02:35:53.520Z,8.50
2022-12-26T02:38:57.258Z,8.60
2022-12-26T02:42:07.172Z,8.60
2022-12-26T02:45:28.109Z,8.60
2022-12-26T02:48:42.259Z,8.60
2022-12-26T02:51:42.157Z,8.60
2022-12-26T02:54:44.382Z,8.60
2022-12-26T02:57:40.962Z,8.60
2022-12-26T03:00:38.135Z,8.60
2022-12-26T03:03:34.147Z,8.60
2022-12-26T03:06:42.682Z,8.70
2022-12-26T03:09:44.327Z,8.70
2022-12-26T03:12:58.827Z,8.70
2022-12-26T03:15:49.897Z,8.70
2022-12-26T03:18:19.353Z,8.70
2022-12-26T03:21:07.814Z,8.70
2022-12-26T03:23:37.664Z,8.70
2022-12-26T03:26:31.573Z,8.70
2022-12-26T03:29:19.225Z,8.70
2022-12-26T03:31:51.787Z,8.80
2022-12-26T03:34:18.973Z,8.80
2022-12-26T03:37:21.894Z,8.80
2022-12-26T03:40:33.086Z,8.80
2022-12-26T03:43:30.063Z,8.80
2022-12-26T03:46:43.761Z,8.80
2022-12-26T03:50:04.057Z,8.80
2022-12-26T03:53:14.114Z,8.80
2022-12-26T03:56:23.896Z,8.80
2022-12-26T03:59:20.390Z,8.80
2022-12-26T04:02:09.484Z,8.80
2022-12-26T04:04:58.530Z,8.70
2022-12-26T04:07:56.623Z,8.70
2022-12-26T04:11:09.919Z,8.70
2022-12-26T04:14:48.639Z,8.70
2022-12-26T04:18:07.468Z,8.70
2022-12-26T04:20:37.021Z,8.80
2022-12-26T04:23:36.865Z,8.80
2022-12-26T04:27:02.722Z,8.80
2022-12-26T04:29:49.172Z,8.70
2022-12-26T04:32:45.403Z,8.80
2022-12-26T04:35:40.056Z,8.80
2022-12-26T04:38:28.346Z,8.80
2022-12-26T04:41:18.970Z,8.80
2022-12-26T04:44:05.498Z,8.80
2022-12-26T04:46:34.604Z,8.80
2022-12-26T04:49:27.217Z,8.70
2022-12-26T04:51:57.065Z,8.70
2022-12-26T04:54:25.296Z,8.70
2022-12-26T04:56:53.004Z,8.60
2022-12-26T04:59:21.011Z,8.60
2022-12-26T05:02:06.589Z,8.50
2022-12-26T05:04:52.401Z,8.50
2022-12-26T05:07:53.274Z,8.50
2022-12-26T05:10:27.488Z,8.50
2022-12-26T05:12:55.678Z,8.50
2022-12-26T05:15:22.974Z,8.50
2022-12-26T05:18:08.479Z,8.50
2022-12-26T05:20:47.491Z,8.50
2022-12-26T05:23:41.384Z,8.50
2022-12-26T05:26:41.175Z,8.50
2022-12-26T05:29:08.523Z,8.50
2022-12-26T05:31:37.095Z,8.50
2022-12-26T05:34:12.180Z,8.50
2022-12-26T05:36:42.719Z,8.50
2022-12-26T05:39:10.066Z,8.50
2022-12-26T05:41:38.441Z,8.50
2022-12-26T05:44:06.585Z,8.50
2022-12-26T05:46:34.624Z,8.50
2022-12-26T05:49:02.244Z,8.50
2022-12-26T05:51:29.471Z,8.50
2022-12-26T05:53:56.654Z,8.50
2022-12-26T05:56:24.123Z,8.50
2022-12-26T05:59:00.592Z,8.50
2022-12-26T06:01:29.473Z,8.50
2022-12-26T06:03:59.339Z,8.40
2022-12-26T06:06:29.733Z,8.40
2022-12-26T06:08:57.933Z,8.50
2022-12-26T06:11:26.908Z,8.50
2022-12-26T06:13:55.363Z,8.40
2022-12-26T06:16:22.694Z,8.50
2022-12-26T06:18:49.987Z,8.50
2022-12-26T06:21:20.294Z,8.50
2022-12-26T06:23:49.174Z,8.50
2022-12-26T06:26:17.330Z,8.50
2022-12-26T06:28:45.010Z,8.50
2022-12-26T06:31:22.234Z,8.50
2022-12-26T06:33:55.634Z,8.60
2022-12-26T06:36:25.646Z,8.60
2022-12-26T06:38:54.843Z,8.60
2022-12-26T06:41:24.177Z,8.60
2022-12-26T06:43:52.094Z,8.60
2022-12-26T06:46:22.477Z,8.60
2022-12-26T06:48:53.609Z,8.60
2022-12-26T06:51:24.661Z,8.60
2022-12-26T06:53:53.336Z,8.70
2022-12-26T06:56:26.148Z,8.60
2022-12-26T06:58:54.864Z,8.70
2022-12-26T07:01:23.010Z,8.70
2022-12-26T07:03:53.548Z,8.70
2022-12-26T07:06:33.120Z,8.70
2022-12-26T07:09:07.843Z,8.60
2022-12-26T07:11:38.012Z,8.60
2022-12-26T07:14:05.411Z,8.50
2022-12-26T07:16:35.682Z,8.50
2022-12-26T07:19:04.226Z,8.50
2022-12-26T07:21:37.953Z,8.50
2022-12-26T07:24:08.910Z,8.50
2022-12-26T07:26:36.039Z,8.50
2022-12-26T07:29:03.222Z,8.50
2022-12-26T07:31:30.506Z,8.50
2022-12-26T07:33:57.789Z,8.50
2022-12-26T07:36:25.422Z,8.50
2022-12-26T07:38:52.936Z,8.50
2022-12-26T07:41:39.016Z,8.40
2022-12-26T07:44:06.192Z,8.40
2022-12-26T07:46:34.075Z,8.40
2022-12-26T07:49:01.681Z,8.40
2022-12-26T07:51:29.012Z,8.30
2022-12-26T07:53:56.686Z,8.40
2022-12-26T07:56:23.962Z,8.40
2022-12-26T07:58:52.314Z,8.40
2022-12-26T08:01:19.625Z,8.40
2022-12-26T08:03:49.549Z,8.40
2022-12-26T08:06:18.018Z,8.40
2022-12-26T08:08:50.788Z,8.40
2022-12-26T08:11:22.786Z,8.40
2022-12-26T08:13:51.266Z,8.30
2022-12-26T08:16:19.306Z,8.40
2022-12-26T08:18:46.550Z,8.40
2022-12-26T08:21:14.251Z,8.40
2022-12-26T08:23:41.758Z,8.40
2022-12-26T08:26:12.314Z,8.40
2022-12-26T08:28:42.336Z,8.40
2022-12-26T08:31:12.627Z,8.50
2022-12-26T08:33:39.805Z,8.50
2022-12-26T08:36:10.772Z,8.60
2022-12-26T08:38:39.214Z,8.60
2022-12-26T08:41:06.677Z,8.70
2022-12-26T08:44:10.044Z,8.80
2022-12-26T08:46:23.152Z,8.80
2022-12-26T08:48:52.082Z,8.90
2022-12-26T08:51:25.106Z,8.90
2022-12-26T08:53:54.530Z,9.00
2022-12-26T08:56:25.666Z,9.00
2022-12-26T08:58:53.273Z,9.10
2022-12-26T09:01:24.114Z,9.10
2022-12-26T09:03:57.592Z,9.20
2022-12-26T09:06:25.809Z,9.20
2022-12-26T09:08:53.671Z,9.20
2022-12-26T09:11:26.968Z,9.20
2022-12-26T09:13:56.144Z,9.20
2022-12-26T09:16:37.416Z,9.20
2022-12-26T09:19:06.322Z,9.20
2022-12-26T09:21:33.858Z,9.20
2022-12-26T09:24:06.367Z,9.20
2022-12-26T09:26:34.151Z,9.20
2022-12-26T09:29:01.247Z,9.10
2022-12-26T09:31:32.656Z,9.10
2022-12-26T09:34:02.966Z,9.20
2022-12-26T09:36:34.178Z,9.20
2022-12-26T09:39:02.274Z,9.20
2022-12-26T09:42:03.004Z,9.20
2022-12-26T09:45:15.818Z,9.10
2022-12-26T09:48:21.998Z,9.20
2022-12-26T09:50:51.768Z,9.20
2022-12-26T09:53:36.433Z,9.10
2022-12-26T09:56:23.690Z,9.20
2022-12-26T09:59:14.030Z,9.20
2022-12-26T10:01:41.419Z,9.20
2022-12-26T10:04:29.976Z,9.20
2022-12-26T10:07:35.315Z,9.20
2022-12-26T10:10:16.967Z,9.20
2022-12-26T10:13:08.147Z,9.10
2022-12-26T10:16:17.072Z,9.00
2022-12-26T10:19:07.129Z,8.60
2022-12-26T10:21:58.578Z,8.30
2022-12-26T10:24:30.914Z,8.10
2022-12-26T10:27:06.732Z,7.90
2022-12-26T10:29:52.371Z,7.80
2022-12-26T10:32:30.912Z,7.70
2022-12-26T10:34:59.763Z,7.70
2022-12-26T10:37:41.030Z,7.70
2022-12-26T10:40:12.598Z,7.70
2022-12-26T10:42:43.535Z,7.70
2022-12-26T10:45:58.893Z,7.70
2022-12-26T10:48:28.683Z,7.70
2022-12-26T10:50:56.198Z,7.80
2022-12-26T10:53:23.928Z,7.80
2022-12-26T10:55:51.084Z,7.90
2022-12-26T10:58:34.132Z,7.90
2022-12-26T11:01:30.805Z,7.90
2022-12-26T11:04:01.693Z,7.90
2022-12-26T11:06:37.638Z,7.80
2022-12-26T11:09:05.412Z,7.80
2022-12-26T11:11:46.041Z,7.70
2022-12-26T11:14:34.020Z,7.70
2022-12-26T11:17:14.066Z,7.60
2022-12-26T11:19:44.379Z,7.60
2022-12-26T11:22:30.274Z,7.60
2022-12-26T11:25:22.378Z,7.60
2022-12-26T11:27:56.873Z,7.50
2022-12-26T11:30:28.704Z,7.50
2022-12-26T11:33:28.319Z,7.50
2022-12-26T11:36:32.717Z,7.40
2022-12-26T11:39:07.935Z,7.40
2022-12-26T11:41:42.461Z,7.40
2022-12-26T11:44:26.697Z,7.50
2022-12-26T11:47:00.196Z,7.50
2022-12-26T11:49:49.531Z,7.50
2022-12-26T11:52:41.611Z,7.60
2022-12-26T11:55:24.523Z,7.60
2022-12-26T11:58:01.866Z,7.60
2022-12-26T12:00:29.901Z,7.60
2022-12-26T12:02:57.214Z,7.70
2022-12-26T12:05:41.867Z,7.70
2022-12-26T12:08:44.436Z,7.70
2022-12-26T12:11:29.572Z,7.70
2022-12-26T12:14:16.299Z,7.70
2022-12-26T12:17:00.628Z,7.70
2022-12-26T12:19:40.951Z,7.80
2022-12-26T12:22:41.141Z,7.90
2022-12-26T12:25:32.848Z,8.00
2022-12-26T12:28:40.930Z,8.10
2022-12-26T12:31:38.984Z,8.10
2022-12-26T12:34:59.649Z,8.10
2022-12-26T12:37:47.120Z,8.00
2022-12-26T12:40:53.132Z,8.00
2022-12-26T12:43:34.089Z,8.00
2022-12-26T12:46:30.260Z,8.00
2022-12-26T12:49:12.871Z,8.00
2022-12-26T12:52:10.533Z,8.10
2022-12-26T12:55:16.712Z,8.10
2022-12-26T12:58:01.477Z,8.00
2022-12-26T13:00:48.643Z,8.00
2022-12-26T13:03:31.098Z,8.00
2022-12-26T13:06:10.324Z,8.00
2022-12-26T13:08:44.148Z,7.90
2022-12-26T13:11:26.307Z,7.90
2022-12-26T13:14:07.561Z,7.90
2022-12-26T13:16:46.753Z,7.90
2022-12-26T13:19:27.705Z,7.80
2022-12-26T13:22:04.740Z,7.80
2022-12-26T13:24:58.087Z,7.70
2022-12-26T13:27:31.474Z,7.70
2022-12-26T13:29:58.600Z,7.60
2022-12-26T13:32:33.153Z,7.60
2022-12-26T13:35:02.926Z,7.60
2022-12-26T13:37:38.897Z,7.60
2022-12-26T13:40:20.627Z,7.60
2022-12-26T13:43:20.631Z,7.50
2022-12-26T13:45:53.786Z,7.50
2022-12-26T13:48:29.579Z,7.50
2022-12-26T13:51:03.496Z,7.40
2022-12-26T13:53:37.336Z,7.40
2022-12-26T13:56:19.589Z,7.40
2022-12-26T13:59:02.593Z,7.30
2022-12-26T14:02:14.605Z,7.30
2022-12-26T14:05:08.535Z,7.10
2022-12-26T14:08:04.117Z,7.10
2022-12-26T14:10:46.185Z,7.00
2022-12-26T14:13:52.126Z,7.00
2022-12-26T14:16:43.268Z,7.00
2022-12-26T14:19:59.037Z,7.10
2022-12-26T14:22:56.525Z,7.10
2022-12-26T14:25:32.659Z,7.10
2022-12-26T14:28:04.427Z,7.10
2022-12-26T14:30:40.603Z,7.10
2022-12-26T14:33:20.252Z,7.00
2022-12-26T14:36:00.935Z,7.00
2022-12-26T14:39:03.031Z,6.90
2022-12-26T14:42:26.834Z,6.90
2022-12-26T14:44:59.798Z,6.90
2022-12-26T14:47:46.752Z,6.80
2022-12-26T14:50:32.497Z,6.70
2022-12-26T14:53:24.637Z,6.60
2022-12-26T14:55:56.766Z,6.50
2022-12-26T14:58:39.397Z,6.40
2022-12-26T15:01:09.721Z,6.30
2022-12-26T15:03:59.840Z,6.20
2022-12-26T15:07:08.554Z,6.10
2022-12-26T15:10:15.851Z,6.00
2022-12-26T15:13:13.852Z,6.00
2022-12-26T15:16:29.792Z,5.90
2022-12-26T15:19:27.648Z,5.80
2022-12-26T15:22:28.448Z,5.70
2022-12-26T15:25:23.495Z,5.70
2022-12-26T15:28:31.333Z,5.70
2022-12-26T15:31:42.386Z,5.60
2022-12-26T15:34:31.025Z,5.60
2022-12-26T15:37:08.830Z,5.60
2022-12-26T15:40:27.030Z,5.50
2022-12-26T15:43:55.660Z,5.50
2022-12-26T15:46:32.933Z,5.40
2022-12-26T15:49:33.468Z,5.40
2022-12-26T15:52:34.877Z,5.30
2022-12-26T15:55:34.987Z,5.20
2022-12-26T15:58:29.426Z,5.10
2022-12-26T16:00:56.866Z,5.00
2022-12-26T16:03:47.024Z,5.00
2022-12-26T16:06:52.901Z,4.90
2022-12-26T16:09:43.813Z,4.80
2022-12-26T16:12:32.931Z,4.80
2022-12-26T16:15:25.176Z,4.80
2022-12-26T16:17:52.360Z,4.70
2022-12-26T16:20:50.738Z,4.70
2022-12-26T16:23:24.627Z,4.70
2022-12-26T16:25:54.822Z,4.70
2022-12-26T16:28:30.069Z,4.60
2022-12-26T16:30:58.623Z,4.60
2022-12-26T16:33:30.083Z,4.50
2022-12-26T16:36:00.922Z,4.50
2022-12-26T16:38:31.671Z,4.50
2022-12-26T16:41:00.433Z,4.40
2022-12-26T16:43:31.707Z,4.40
2022-12-26T16:46:03.696Z,4.40
2022-12-26T16:48:33.933Z,4.30
2022-12-26T16:51:10.059Z,4.30
2022-12-26T16:53:37.121Z,4.20
2022-12-26T16:56:24.291Z,4.10
2022-12-26T16:59:17.840Z,4.10
2022-12-26T17:01:56.147Z,4.10
2022-12-26T17:04:30.462Z,4.00
2022-12-26T17:07:07.645Z,4.00
2022-12-26T17:09:52.021Z,4.00
2022-12-26T17:12:33.513Z,3.90
2022-12-26T17:15:02.287Z,3.90
2022-12-26T17:17:38.362Z,3.80
2022-12-26T17:20:23.690Z,3.80
2022-12-26T17:22:56.155Z,3.80
2022-12-26T17:25:27.960Z,3.70
2022-12-26T17:28:14.976Z,3.70
2022-12-26T17:30:53.263Z,3.70
2022-12-26T17:33:28.993Z,3.70
2022-12-26T17:39:30.613Z,3.60
2022-12-26T17:42:01.120Z,3.60
2022-12-26T17:44:43.946Z,3.60
2022-12-26T17:47:25.177Z,3.50
2022-12-26T17:49:53.760Z,3.50
2022-12-26T17:52:30.351Z,3.50
2022-12-26T17:54:58.430Z,3.50
2022-12-26T17:57:28.960Z,3.50
2022-12-26T17:59:57.369Z,3.40
2022-12-26T18:02:24.920Z,3.40
2022-12-26T18:04:52.332Z,3.40
2022-12-26T18:07:31.318Z,3.40
2022-12-26T18:10:01.010Z,3.40
2022-12-26T18:12:28.346Z,3.40
2022-12-26T18:15:01.319Z,3.40
2022-12-26T18:17:32.236Z,3.40
2022-12-26T18:20:00.484Z,3.30
2022-12-26T18:22:28.250Z,3.20
2022-12-26T18:24:55.387Z,3.20
2022-12-26T18:27:35.215Z,3.20
2022-12-26T18:30:02.767Z,3.20
2022-12-26T18:32:33.386Z,3.20
2022-12-26T18:35:00.920Z,3.20
2022-12-26T18:37:30.076Z,3.20
2022-12-26T18:39:57.518Z,3.10
2022-12-26T18:42:26.573Z,3.10
2022-12-26T18:44:53.847Z,3.10
2022-12-26T18:47:22.360Z,3.10
2022-12-26T18:49:49.748Z,3.00
2022-12-26T18:52:17.557Z,3.00
2022-12-26T18:54:45.673Z,3.10
2022-12-26T18:57:19.487Z,3.10
2022-12-26T18:59:48.072Z,3.00
2022-12-26T19:02:19.794Z,3.10
2022-12-26T19:04:50.206Z,3.10
2022-12-26T19:07:20.464Z,3.10
2022-12-26T19:09:55.763Z,3.00
2022-12-26T19:12:24.482Z,3.10
2022-12-26T19:14:52.325Z,3.10
2022-12-26T19:17:19.659Z,3.00
2022-12-26T19:19:48.240Z,3.00
2022-12-26T19:22:18.309Z,3.00
2022-12-26T19:24:46.506Z,3.00
2022-12-26T19:27:13.608Z,3.00
2022-12-26T19:29:40.706Z,3.00
2022-12-26T19:32:09.131Z,3.00
2022-12-26T19:34:36.205Z,2.90
2022-12-26T19:37:03.381Z,2.90
2022-12-26T19:39:30.475Z,2.90
2022-12-26T19:41:57.485Z,2.90
2022-12-26T19:44:24.636Z,2.90
2022-12-26T19:47:12.633Z,2.90
2022-12-26T19:49:38.989Z,3.00
2022-12-26T19:52:06.085Z,3.00
2022-12-26T19:54:33.220Z,3.00
2022-12-26T19:57:00.331Z,3.00
2022-12-26T19:59:27.537Z,3.00
2022-12-26T20:01:54.968Z,3.00
2022-12-26T20:04:22.268Z,3.10
2022-12-26T20:06:49.648Z,3.20
2022-12-26T20:09:16.979Z,3.20
2022-12-26T20:11:49.408Z,3.20
2022-12-26T20:14:19.968Z,3.20
2022-12-26T20:17:08.563Z,3.20
2022-12-26T20:19:37.046Z,3.30
2022-12-26T20:22:05.671Z,3.40
2022-12-26T20:24:33.724Z,3.40
2022-12-26T20:27:01.469Z,3.50
2022-12-26T20:29:28.846Z,3.40
2022-12-26T20:31:57.627Z,3.40
2022-12-26T20:34:24.866Z,3.40
2022-12-26T20:36:52.132Z,3.40
2022-12-26T20:39:19.999Z,3.40
2022-12-26T20:41:47.412Z,3.40
2022-12-26T20:44:16.463Z,3.30
2022-12-26T20:46:45.515Z,3.30
2022-12-26T20:49:13.035Z,3.30
2022-12-26T20:51:43.723Z,3.30
2022-12-26T20:54:13.842Z,3.20
2022-12-26T20:56:41.917Z,3.20
2022-12-26T20:59:09.337Z,3.20
2022-12-26T21:01:38.029Z,3.20
2022-12-26T21:04:06.538Z,3.10
2022-12-26T21:06:37.342Z,3.10
2022-12-26T21:09:09.210Z,3.00
2022-12-26T21:11:39.149Z,3.00
2022-12-26T21:14:11.249Z,2.90
2022-12-26T21:16:57.364Z,2.90
2022-12-26T21:19:27.217Z,2.80
2022-12-26T21:21:55.467Z,2.90
2022-12-26T21:24:31.604Z,3.00
2022-12-26T21:26:59.376Z,3.00
2022-12-26T21:29:30.265Z,3.00
2022-12-26T21:31:58.475Z,3.00
2022-12-26T21:34:28.897Z,3.10
2022-12-26T21:37:16.531Z,3.10
2022-12-26T21:39:44.249Z,3.20
2022-12-26T21:42:11.459Z,3.30
2022-12-26T21:44:38.700Z,3.30
2022-12-26T21:47:09.948Z,3.30
2022-12-26T21:49:37.553Z,3.30
2022-12-26T21:52:06.841Z,3.30
2022-12-26T21:54:52.929Z,3.20
2022-12-26T21:57:20.892Z,3.20
2022-12-26T21:59:56.812Z,3.20
2022-12-26T22:02:46.953Z,3.20
2022-12-26T22:05:14.728Z,3.20
2022-12-26T22:07:42.325Z,3.10
2022-12-26T22:10:31.689Z,3.20
2022-12-26T22:12:59.302Z,3.20
2022-12-26T22:15:45.300Z,3.20
2022-12-26T22:18:12.810Z,3.10
2022-12-26T22:20:41.540Z,3.10
2022-12-26T22:23:09.041Z,3.10
2022-12-26T22:25:36.226Z,3.10
2022-12-26T22:28:03.588Z,3.10
2022-12-26T22:30:30.852Z,3.10
2022-12-26T22:32:58.295Z,3.10
2022-12-26T22:35:25.321Z,3.20
2022-12-26T22:37:52.435Z,3.20
2022-12-26T22:40:19.681Z,3.20
2022-12-26T22:42:46.812Z,3.20
2022-12-26T22:45:13.975Z,3.20
2022-12-26T22:47:43.989Z,3.20
2022-12-26T22:50:16.258Z,3.20
2022-12-26T22:52:44.229Z,3.30
2022-12-26T22:55:12.671Z,3.30
2022-12-26T22:57:40.386Z,3.30
2022-12-26T23:00:12.711Z,3.30
2022-12-26T23:02:40.297Z,3.30
2022-12-26T23:05:11.377Z,3.30
2022-12-26T23:07:39.198Z,3.20
2022-12-26T23:10:08.150Z,3.20
2022-12-26T23:12:45.116Z,3.10
2022-12-26T23:15:22.794Z,3.20
2022-12-26T23:18:39.028Z,3.10
2022-12-26T23:21:38.913Z,3.20
2022-12-26T23:24:27.442Z,3.20
2022-12-26T23:27:19.055Z,3.20
2022-12-26T23:30:05.056Z,3.20
2022-12-26T23:32:32.879Z,3.20
2022-12-26T23:35:00.101Z,3.20
2022-12-26T23:37:27.228Z,3.20
2022-12-26T23:39:54.291Z,3.30
2022-12-26T23:42:21.457Z,3.30
2022-12-26T23:44:48.693Z,3.40
2022-12-26T23:47:15.915Z,3.40
2022-12-26T23:49:43.118Z,3.40
2022-12-26T23:52:10.203Z,3.30
2022-12-26T23:54:37.377Z,3.30
2022-12-26T23:57:04.718Z,3.20
2022-12-26T23:59:31.851Z,3.20
